createdAt,value
2019-06-26T00:08:36.514Z,20.20
2019-06-26T00:17:33.161Z,20.20
2019-06-26T00:20:19.259Z,21.40
2019-06-26T00:23:49.869Z,21.00
2019-06-26T00:27:10.260Z,23.20
2019-06-26T00:30:13.832Z,23.00
2019-06-26T00:33:04.895Z,24.60
2019-06-26T00:35:52.655Z,23.20
2019-06-26T00:45:39.619Z,24.20
2019-06-26T00:48:23.055Z,25.00
2019-06-26T00:51:16.893Z,23.00
2019-06-26T00:54:47.136Z,25.80
2019-06-26T00:57:37.485Z,23.60
2019-06-26T01:00:46.971Z,25.00
2019-06-26T01:04:13.525Z,22.40
2019-06-26T01:10:40.272Z,24.80
2019-06-26T01:13:33.836Z,26.20
2019-06-26T01:19:45.394Z,25.40
2019-06-26T01:23:43.255Z,23.40
2019-06-26T01:26:39.960Z,25.80
2019-06-26T01:29:19.414Z,27.20
2019-06-26T01:32:12.457Z,25.00
2019-06-26T01:38:44.103Z,25.20
2019-06-26T01:45:01.803Z,25.00
2019-06-26T01:48:10.397Z,25.20
2019-06-26T01:55:05.044Z,27.60
2019-06-26T01:57:44.987Z,29.20
2019-06-26T02:07:59.597Z,28.40
2019-06-26T02:10:58.489Z,29.00
2019-06-26T02:14:03.497Z,25.20
2019-06-26T02:17:28.858Z,28.00
2019-06-26T02:21:27.821Z,29.60
2019-06-26T02:23:15.265Z,28.60
2019-06-26T02:29:23.588Z,29.20
2019-06-26T02:32:20.124Z,28.00
2019-06-26T02:34:51.993Z,30.60
2019-06-26T02:37:54.056Z,29.00
2019-06-26T02:40:46.495Z,29.60
2019-06-26T02:43:56.282Z,28.40
2019-06-26T02:50:03.290Z,31.00
2019-06-26T02:53:35.828Z,30.60
2019-06-26T02:55:53.163Z,28.00
2019-06-26T02:59:05.480Z,30.20
2019-06-26T03:09:39.370Z,29.40
2019-06-26T03:12:27.893Z,29.80
2019-06-26T03:15:18.987Z,30.60
2019-06-26T03:22:56.070Z,29.20
2019-06-26T03:25:57.046Z,29.00
2019-06-26T03:29:03.623Z,29.60
2019-06-26T03:32:35.942Z,30.00
2019-06-26T03:35:23.002Z,30.00
2019-06-26T03:41:44.658Z,29.20
2019-06-26T03:44:42.567Z,31.20
2019-06-26T03:47:45.826Z,34.00
2019-06-26T04:01:31.392Z,30.80
2019-06-26T04:04:31.595Z,29.20
2019-06-26T04:07:05.424Z,30.00
2019-06-26T04:15:41.527Z,30.00
2019-06-26T04:17:20.729Z,30.00
2019-06-26T04:34:15.279Z,41.80
2019-06-26T04:37:16.300Z,40.20
2019-06-26T05:03:33.821Z,44.40
2019-06-26T05:35:38.229Z,44.00
2019-06-26T11:46:45.815Z,20.80
2019-06-26T13:30:59.280Z,24.00
2019-06-26T13:52:55.187Z,26.00
2019-06-26T15:08:47.706Z,25.80
2019-06-26T19:54:05.163Z,16.40
2019-06-26T21:27:53.184Z,14.40
2019-06-26T21:30:22.578Z,14.40
2019-06-26T21:32:51.992Z,12.80
2019-06-26T21:35:21.513Z,14.40
2019-06-26T21:37:51.186Z,13.00
2019-06-26T21:40:20.702Z,11.20
2019-06-26T21:42:50.225Z,13.40
2019-06-26T21:45:20.715Z,14.60
2019-06-26T21:47:50.192Z,12.80
2019-06-26T21:50:37.066Z,14.20
2019-06-26T21:53:06.815Z,13.00
2019-06-26T21:55:36.263Z,11.80
2019-06-26T21:58:14.813Z,11.00
2019-06-26T22:00:44.785Z,11.00
2019-06-26T22:03:15.138Z,11.20
2019-06-26T22:05:45.238Z,11.60
2019-06-26T22:08:15.529Z,11.00
2019-06-26T22:10:45.706Z,11.00
2019-06-26T22:13:15.818Z,9.00
2019-06-26T22:15:50.090Z,9.00
2019-06-26T22:18:20.431Z,9.00
2019-06-26T22:20:50.517Z,8.20
2019-06-26T22:23:20.696Z,8.80
2019-06-26T22:25:51.546Z,12.00
2019-06-26T22:28:21.764Z,11.60
2019-06-26T22:30:51.769Z,12.00
2019-06-26T22:33:22.092Z,11.20
2019-06-26T22:35:54.533Z,11.60
2019-06-26T22:38:25.713Z,10.40
2019-06-26T22:40:55.832Z,11.40
2019-06-26T22:43:25.841Z,9.60
2019-06-26T22:45:55.764Z,9.00
2019-06-26T22:48:26.124Z,11.00
2019-06-26T22:50:55.878Z,11.80
2019-06-26T22:53:26.223Z,11.40
2019-06-26T22:56:06.948Z,8.80
2019-06-26T22:58:28.000Z,10.00
2019-06-26T23:00:57.915Z,10.00
2019-06-26T23:03:28.104Z,8.20
2019-06-26T23:05:58.226Z,10.80
2019-06-26T23:08:28.177Z,10.20
2019-06-26T23:10:58.546Z,10.00
2019-06-26T23:13:28.510Z,10.00
2019-06-26T23:15:58.818Z,9.20
2019-06-26T23:18:28.652Z,8.40
2019-06-26T23:20:59.147Z,11.40
2019-06-26T23:23:29.252Z,10.20
2019-06-26T23:25:59.403Z,10.80
2019-06-26T23:28:29.512Z,6.60
2019-06-26T23:30:59.087Z,9.60
2019-06-26T23:33:28.661Z,10.40
2019-06-26T23:35:58.271Z,11.00
2019-06-26T23:38:27.774Z,4.80
2019-06-26T23:43:21.513Z,10.00
2019-06-26T23:45:51.073Z,11.80
2019-06-26T23:48:20.685Z,10.60
2019-06-26T23:50:50.722Z,7.40
2019-06-26T23:53:20.397Z,10.60
2019-06-26T23:55:49.983Z,14.40
2019-06-26T23:58:19.589Z,10.20
